Terminal Aerodrome Forecast
Issued by NWS

Home | Current Version | Previous Version | Text Only | Print | Product List | Glossary On
Versions: 1 2 3 4 5 6 7 8 9 10 11 12 13
000
FTUS43 KGRB 192326
TAFMTW
TAF
KMTW 192326Z 2000/2024 03009G17KT 3SM -FZDZ BR OVC006
      TEMPO 2000/2004 1SM -FZRAPL BR BKN003
     FM200400 01009KT 2SM -FZDZ BR OVC004
     FM200800 36005KT 2SM -RA BR OVC003
     FM201600 29007KT 6SM -RA OVC006=

USA.gov is the U.S. government's official web portal to all federal, state and local government web resources and services.